Howland, Ohio
Current Conditions -  °F | °C
As of 3:51 AM on Monday 20 Oct 2014 (Local Time) from KYNG Reporting Station
Overcast Overcast  
Wind Chill: 42°   Ceiling: 13000
Heat Index: 44°   Visibility: 10mi
Dew Point: 36°   Wind: 5mph
Humidity: 73%   Direction: 180°S
Pressure: 30.02"   Gusts: NA
Location:  41.234°N, 80.7496°W
Report Text: KYNG 200751Z 18004KT 10SM OVC130 07/02 A3002 RMK AO2 SLP169 T00670022
Loading
Personal Weather Stations






























Interactive Weather Map
Tropical Storm Tracking
New forecast layout! Learn more

10-Day Weather Forecast

Advertisements
Track Severe Weather on mobile